sensor_id;sensor_type;location;lat;lon;timestamp;pressure;altitude;pressure_sealevel;temperature
15360;BMP280;7779;49.596;11.070;2023-02-01T00:00:21;98672.53;;;8.61
15360;BMP280;7779;49.596;11.070;2023-02-01T00:02:47;98673.31;;;8.60
15360;BMP280;7779;49.596;11.070;2023-02-01T00:05:13;98676.56;;;8.59
15360;BMP280;7779;49.596;11.070;2023-02-01T00:07:39;98674.81;;;8.58
15360;BMP280;7779;49.596;11.070;2023-02-01T00:10:06;98667.31;;;8.58
15360;BMP280;7779;49.596;11.070;2023-02-01T00:12:33;98660.50;;;8.56
15360;BMP280;7779;49.596;11.070;2023-02-01T00:14:58;98655.50;;;8.56
15360;BMP280;7779;49.596;11.070;2023-02-01T00:17:24;98650.41;;;8.54
15360;BMP280;7779;49.596;11.070;2023-02-01T00:19:50;98660.38;;;8.54
15360;BMP280;7779;49.596;11.070;2023-02-01T00:22:16;98664.63;;;8.55
15360;BMP280;7779;49.596;11.070;2023-02-01T00:24:42;98653.78;;;8.55
15360;BMP280;7779;49.596;11.070;2023-02-01T00:27:07;98648.78;;;8.55
15360;BMP280;7779;49.596;11.070;2023-02-01T00:29:33;98647.91;;;8.54
15360;BMP280;7779;49.596;11.070;2023-02-01T00:31:59;98652.91;;;8.54
15360;BMP280;7779;49.596;11.070;2023-02-01T00:34:24;98662.88;;;8.54
15360;BMP280;7779;49.596;11.070;2023-02-01T00:36:50;98654.66;;;8.55
15360;BMP280;7779;49.596;11.070;2023-02-01T00:39:16;98652.16;;;8.55
15360;BMP280;7779;49.596;11.070;2023-02-01T00:41:42;98645.41;;;8.54
15360;BMP280;7779;49.596;11.070;2023-02-01T00:44:08;98654.66;;;8.55
15360;BMP280;7779;49.596;11.070;2023-02-01T00:46:34;98643.88;;;8.56
15360;BMP280;7779;49.596;11.070;2023-02-01T00:49:00;98632.16;;;8.55
15360;BMP280;7779;49.596;11.070;2023-02-01T00:51:29;98633.88;;;8.56
15360;BMP280;7779;49.596;11.070;2023-02-01T00:53:56;98646.38;;;8.56
15360;BMP280;7779;49.596;11.070;2023-02-01T00:56:22;98631.38;;;8.56
15360;BMP280;7779;49.596;11.070;2023-02-01T00:58:48;98637.28;;;8.57
15360;BMP280;7779;49.596;11.070;2023-02-01T01:01:27;98639.09;;;8.59
15360;BMP280;7779;49.596;11.070;2023-02-01T01:03:57;98640.06;;;8.61
15360;BMP280;7779;49.596;11.070;2023-02-01T01:06:28;98631.03;;;8.63
15360;BMP280;7779;49.596;11.070;2023-02-01T01:08:56;98635.28;;;8.64
15360;BMP280;7779;49.596;11.070;2023-02-01T01:11:27;98637.00;;;8.65
15360;BMP280;7779;49.596;11.070;2023-02-01T01:13:55;98639.63;;;8.66
15360;BMP280;7779;49.596;11.070;2023-02-01T01:16:24;98642.22;;;8.68
15360;BMP280;7779;49.596;11.070;2023-02-01T01:18:50;98637.22;;;8.68
15360;BMP280;7779;49.596;11.070;2023-02-01T01:21:17;98640.69;;;8.70
15360;BMP280;7779;49.596;11.070;2023-02-01T01:23:45;98643.19;;;8.70
15360;BMP280;7779;49.596;11.070;2023-02-01T01:26:16;98644.94;;;8.71
15360;BMP280;7779;49.596;11.070;2023-02-01T01:28:43;98640.69;;;8.70
15360;BMP280;7779;49.596;11.070;2023-02-01T01:31:11;98645.69;;;8.70
15360;BMP280;7779;49.596;11.070;2023-02-01T01:33:37;98643.94;;;8.69
15360;BMP280;7779;49.596;11.070;2023-02-01T01:36:08;98639.84;;;8.69
15360;BMP280;7779;49.596;11.070;2023-02-01T01:38:41;98646.34;;;8.67
15360;BMP280;7779;49.596;11.070;2023-02-01T01:41:11;98640.47;;;8.67
15360;BMP280;7779;49.596;11.070;2023-02-01T01:43:55;98645.47;;;8.67
15360;BMP280;7779;49.596;11.070;2023-02-01T01:46:33;98642.00;;;8.65
15360;BMP280;7779;49.596;11.070;2023-02-01T01:49:14;98636.16;;;8.64
15360;BMP280;7779;49.596;11.070;2023-02-01T01:51:55;98623.56;;;8.63
15360;BMP280;7779;49.596;11.070;2023-02-01T01:54:32;98621.84;;;8.62
15360;BMP280;7779;49.596;11.070;2023-02-01T01:57:05;98627.47;;;8.59
15360;BMP280;7779;49.596;11.070;2023-02-01T01:59:36;98629.84;;;8.58
15360;BMP280;7779;49.596;11.070;2023-02-01T02:02:03;98636.59;;;8.59
15360;BMP280;7779;49.596;11.070;2023-02-01T02:04:30;98627.34;;;8.58
15360;BMP280;7779;49.596;11.070;2023-02-01T02:07:06;98623.38;;;8.60
15360;BMP280;7779;49.596;11.070;2023-02-01T02:09:34;98619.22;;;8.60
15360;BMP280;7779;49.596;11.070;2023-02-01T02:11:59;98622.59;;;8.61
15360;BMP280;7779;49.596;11.070;2023-02-01T02:14:26;98621.84;;;8.62
15360;BMP280;7779;49.596;11.070;2023-02-01T02:17:08;98610.31;;;8.64
15360;BMP280;7779;49.596;11.070;2023-02-01T02:34:47;98606.47;;;8.69
15360;BMP280;7779;49.596;11.070;2023-02-01T02:40:36;98600.63;;;8.68
15360;BMP280;7779;49.596;11.070;2023-02-01T02:43:22;98598.97;;;8.69
15360;BMP280;7779;49.596;11.070;2023-02-01T02:46:30;98599.88;;;8.69
15360;BMP280;7779;49.596;11.070;2023-02-01T02:49:25;98600.72;;;8.70
15360;BMP280;7779;49.596;11.070;2023-02-01T02:52:18;98604.19;;;8.72
15360;BMP280;7779;49.596;11.070;2023-02-01T02:55:05;98595.94;;;8.73
15360;BMP280;7779;49.596;11.070;2023-02-01T02:57:40;98581.13;;;8.76
15360;BMP280;7779;49.596;11.070;2023-02-01T03:00:33;98571.16;;;8.76
15360;BMP280;7779;49.596;11.070;2023-02-01T03:03:18;98571.16;;;8.76
15360;BMP280;7779;49.596;11.070;2023-02-01T03:06:02;98561.16;;;8.76
15360;BMP280;7779;49.596;11.070;2023-02-01T03:08:30;98557.13;;;8.78
15360;BMP280;7779;49.596;11.070;2023-02-01T03:11:08;98568.13;;;8.80
15360;BMP280;7779;49.596;11.070;2023-02-01T03:13:53;98560.63;;;8.80
15360;BMP280;7779;49.596;11.070;2023-02-01T03:16:27;98555.63;;;8.80
15360;BMP280;7779;49.596;11.070;2023-02-01T03:21:51;98569.63;;;8.78
15360;BMP280;7779;49.596;11.070;2023-02-01T03:24:40;98578.00;;;8.78
15360;BMP280;7779;49.596;11.070;2023-02-01T03:30:17;98571.34;;;8.79
15360;BMP280;7779;49.596;11.070;2023-02-01T03:32:49;98560.41;;;8.77
15360;BMP280;7779;49.596;11.070;2023-02-01T03:36:05;98563.75;;;8.77
15360;BMP280;7779;49.596;11.070;2023-02-01T03:38:43;98555.31;;;8.75
15360;BMP280;7779;49.596;11.070;2023-02-01T03:41:41;98568.75;;;8.77
15360;BMP280;7779;49.596;11.070;2023-02-01T03:44:23;98574.59;;;8.78
15360;BMP280;7779;49.596;11.070;2023-02-01T03:46:59;98577.88;;;8.77
15360;BMP280;7779;49.596;11.070;2023-02-01T03:49:45;98563.00;;;8.78
15360;BMP280;7779;49.596;11.070;2023-02-01T03:52:18;98556.38;;;8.79
15360;BMP280;7779;49.596;11.070;2023-02-01T03:54:47;98550.63;;;8.80
15360;BMP280;7779;49.596;11.070;2023-02-01T03:57:16;98553.31;;;8.83
15360;BMP280;7779;49.596;11.070;2023-02-01T03:59:45;98537.56;;;8.84
15360;BMP280;7779;49.596;11.070;2023-02-01T04:02:11;98545.25;;;8.87
15360;BMP280;7779;49.596;11.070;2023-02-01T04:04:37;98540.25;;;8.87
15360;BMP280;7779;49.596;11.070;2023-02-01T04:07:04;98536.13;;;8.87
15360;BMP280;7779;49.596;11.070;2023-02-01T04:09:29;98533.53;;;8.86
15360;BMP280;7779;49.596;11.070;2023-02-01T04:11:55;98536.78;;;8.85
15360;BMP280;7779;49.596;11.070;2023-02-01T04:14:21;98533.31;;;8.83
15360;BMP280;7779;49.596;11.070;2023-02-01T04:16:47;98532.47;;;8.82
15360;BMP280;7779;49.596;11.070;2023-02-01T04:19:12;98533.31;;;8.83
15360;BMP280;7779;49.596;11.070;2023-02-01T04:21:38;98532.56;;;8.84
15360;BMP280;7779;49.596;11.070;2023-02-01T04:24:04;98526.78;;;8.85
15360;BMP280;7779;49.596;11.070;2023-02-01T04:26:30;98511.78;;;8.85
15360;BMP280;7779;49.596;11.070;2023-02-01T04:28:56;98526.03;;;8.86
15360;BMP280;7779;49.596;11.070;2023-02-01T04:31:22;98527.56;;;8.84
15360;BMP280;7779;49.596;11.070;2023-02-01T04:33:54;98530.06;;;8.84
15360;BMP280;7779;49.596;11.070;2023-02-01T04:36:22;98532.34;;;8.81
15360;BMP280;7779;49.596;11.070;2023-02-01T04:38:51;98527.25;;;8.79
15360;BMP280;7779;49.596;11.070;2023-02-01T04:41:18;98524.66;;;8.78
15360;BMP280;7779;49.596;11.070;2023-02-01T04:43:49;98532.06;;;8.76
15360;BMP280;7779;49.596;11.070;2023-02-01T04:46:16;98531.19;;;8.76
15360;BMP280;7779;49.596;11.070;2023-02-01T04:48:42;98537.94;;;8.77
15360;BMP280;7779;49.596;11.070;2023-02-01T04:51:10;98539.56;;;8.76
15360;BMP280;7779;49.596;11.070;2023-02-01T04:53:36;98532.94;;;8.77
15360;BMP280;7779;49.596;11.070;2023-02-01T04:56:02;98532.94;;;8.77
15360;BMP280;7779;49.596;11.070;2023-02-01T04:58:28;98534.66;;;8.78
15360;BMP280;7779;49.596;11.070;2023-02-01T05:00:53;98524.75;;;8.79
15360;BMP280;7779;49.596;11.070;2023-02-01T05:03:19;98524.00;;;8.80
15360;BMP280;7779;49.596;11.070;2023-02-01T05:05:48;98533.31;;;8.83
15360;BMP280;7779;49.596;11.070;2023-02-01T05:08:15;98532.47;;;8.82
15360;BMP280;7779;49.596;11.070;2023-02-01T05:10:41;98528.16;;;8.80
15360;BMP280;7779;49.596;11.070;2023-02-01T05:13:08;98525.66;;;8.80
15360;BMP280;7779;49.596;11.070;2023-02-01T05:15:54;98533.78;;;8.77
15360;BMP280;7779;49.596;11.070;2023-02-01T05:18:19;98529.47;;;8.75
15360;BMP280;7779;49.596;11.070;2023-02-01T05:20:45;98535.31;;;8.75
15360;BMP280;7779;49.596;11.070;2023-02-01T05:23:11;98535.22;;;8.74
15360;BMP280;7779;49.596;11.070;2023-02-01T05:25:36;98534.25;;;8.72
15360;BMP280;7779;49.596;11.070;2023-02-01T05:28:02;98529.94;;;8.69
15360;BMP280;7779;49.596;11.070;2023-02-01T05:30:27;98533.19;;;8.68
15360;BMP280;7779;49.596;11.070;2023-02-01T05:32:53;98526.38;;;8.66
15360;BMP280;7779;49.596;11.070;2023-02-01T05:35:19;98533.84;;;8.66
15360;BMP280;7779;49.596;11.070;2023-02-01T05:37:45;98522.13;;;8.65
15360;BMP280;7779;49.596;11.070;2023-02-01T05:40:11;98520.41;;;8.64
15360;BMP280;7779;49.596;11.070;2023-02-01T05:42:37;98516.16;;;8.63
15360;BMP280;7779;49.596;11.070;2023-02-01T05:45:03;98516.94;;;8.62
15360;BMP280;7779;49.596;11.070;2023-02-01T05:47:31;98510.22;;;8.61
15360;BMP280;7779;49.596;11.070;2023-02-01T05:49:56;98510.00;;;8.58
15360;BMP280;7779;49.596;11.070;2023-02-01T05:52:22;98500.91;;;8.58
15360;BMP280;7779;49.596;11.070;2023-02-01T05:54:48;98505.78;;;8.57
15360;BMP280;7779;49.596;11.070;2023-02-01T05:57:14;98503.28;;;8.57
15360;BMP280;7779;49.596;11.070;2023-02-01T05:59:40;98506.53;;;8.56
15360;BMP280;7779;49.596;11.070;2023-02-01T06:02:09;98504.81;;;8.55
15360;BMP280;7779;49.596;11.070;2023-02-01T06:04:35;98500.69;;;8.56
15360;BMP280;7779;49.596;11.070;2023-02-01T06:07:01;98499.63;;;8.52
15360;BMP280;7779;49.596;11.070;2023-02-01T06:09:27;98498.88;;;8.53
15360;BMP280;7779;49.596;11.070;2023-02-01T06:11:54;98502.22;;;8.54
15360;BMP280;7779;49.596;11.070;2023-02-01T06:14:20;98502.91;;;8.51
15360;BMP280;7779;49.596;11.070;2023-02-01T06:16:45;98502.78;;;8.50
15360;BMP280;7779;49.596;11.070;2023-02-01T06:19:13;98499.41;;;8.49
15360;BMP280;7779;49.596;11.070;2023-02-01T06:21:39;98502.69;;;8.48
15360;BMP280;7779;49.596;11.070;2023-02-01T06:24:05;98505.94;;;8.47
15360;BMP280;7779;49.596;11.070;2023-02-01T06:26:31;98500.94;;;8.47
15360;BMP280;7779;49.596;11.070;2023-02-01T06:28:57;98504.22;;;8.46
15360;BMP280;7779;49.596;11.070;2023-02-01T06:31:23;98512.44;;;8.45
15360;BMP280;7779;49.596;11.070;2023-02-01T06:33:51;98507.47;;;8.45
15360;BMP280;7779;49.596;11.070;2023-02-01T06:36:17;98508.25;;;8.44
15360;BMP280;7779;49.596;11.070;2023-02-01T06:38:44;98495.75;;;8.44
15360;BMP280;7779;49.596;11.070;2023-02-01T06:41:10;98495.66;;;8.43
15360;BMP280;7779;49.596;11.070;2023-02-01T06:43:36;98495.53;;;8.41
15360;BMP280;7779;49.596;11.070;2023-02-01T06:46:08;98495.53;;;8.41
15360;BMP280;7779;49.596;11.070;2023-02-01T06:48:35;98502.94;;;8.40
15360;BMP280;7779;49.596;11.070;2023-02-01T06:51:01;98495.44;;;8.40
15360;BMP280;7779;49.596;11.070;2023-02-01T06:53:27;98508.81;;;8.40
15360;BMP280;7779;49.596;11.070;2023-02-01T06:56:01;98507.06;;;8.39
15360;BMP280;7779;49.596;11.070;2023-02-01T06:58:32;98507.75;;;8.37
15360;BMP280;7779;49.596;11.070;2023-02-01T07:01:04;98501.09;;;8.37
15360;BMP280;7779;49.596;11.070;2023-02-01T07:03:30;98501.84;;;8.36
15360;BMP280;7779;49.596;11.070;2023-02-01T07:05:57;98501.84;;;8.36
15360;BMP280;7779;49.596;11.070;2023-02-01T07:08:26;98497.66;;;8.35
15360;BMP280;7779;49.596;11.070;2023-02-01T07:10:52;98502.63;;;8.35
15360;BMP280;7779;49.596;11.070;2023-02-01T07:13:19;98500.16;;;8.35
15360;BMP280;7779;49.596;11.070;2023-02-01T07:15:45;98497.75;;;8.37
15360;BMP280;7779;49.596;11.070;2023-02-01T07:18:16;98506.09;;;8.37
15360;BMP280;7779;49.596;11.070;2023-02-01T07:20:41;98501.09;;;8.37
15360;BMP280;7779;49.596;11.070;2023-02-01T07:23:10;98513.81;;;8.40
15360;BMP280;7779;49.596;11.070;2023-02-01T07:25:35;98498.81;;;8.40
15360;BMP280;7779;49.596;11.070;2023-02-01T07:28:02;98510.53;;;8.41
15360;BMP280;7779;49.596;11.070;2023-02-01T07:30:28;98507.16;;;8.41
15360;BMP280;7779;49.596;11.070;2023-02-01T07:32:53;98504.78;;;8.42
15360;BMP280;7779;49.596;11.070;2023-02-01T07:35:19;98508.13;;;8.43
15360;BMP280;7779;49.596;11.070;2023-02-01T07:37:45;98494.00;;;8.43
15360;BMP280;7779;49.596;11.070;2023-02-01T07:40:11;98500.75;;;8.44
15360;BMP280;7779;49.596;11.070;2023-02-01T07:42:37;98501.63;;;8.45
15360;BMP280;7779;49.596;11.070;2023-02-01T07:45:03;98496.63;;;8.45
15360;BMP280;7779;49.596;11.070;2023-02-01T07:47:29;98491.72;;;8.46
15360;BMP280;7779;49.596;11.070;2023-02-01T07:49:55;98495.94;;;8.47
15360;BMP280;7779;49.596;11.070;2023-02-01T07:52:20;98493.56;;;8.49
15360;BMP280;7779;49.596;11.070;2023-02-01T07:54:46;98497.69;;;8.48
15360;BMP280;7779;49.596;11.070;2023-02-01T07:57:12;98490.09;;;8.47
15360;BMP280;7779;49.596;11.070;2023-02-01T07:59:38;98477.72;;;8.48
15360;BMP280;7779;49.596;11.070;2023-02-01T08:02:27;98474.44;;;8.49
15360;BMP280;7779;49.596;11.070;2023-02-01T08:04:53;98481.19;;;8.50
15360;BMP280;7779;49.596;11.070;2023-02-01T08:07:18;98500.47;;;8.53
15360;BMP280;7779;49.596;11.070;2023-02-01T08:09:44;98506.53;;;8.56
15360;BMP280;7779;49.596;11.070;2023-02-01T08:12:10;98499.47;;;8.62
15360;BMP280;7779;49.596;11.070;2023-02-01T08:14:35;98509.00;;;8.67
15360;BMP280;7779;49.596;11.070;2023-02-01T08:17:01;98487.59;;;8.71
15360;BMP280;7779;49.596;11.070;2023-02-01T08:19:27;98481.22;;;8.76
15360;BMP280;7779;49.596;11.070;2023-02-01T08:21:53;98494.13;;;8.82
15360;BMP280;7779;49.596;11.070;2023-02-01T08:24:18;98498.72;;;8.89
15360;BMP280;7779;49.596;11.070;2023-02-01T08:26:44;98496.75;;;8.96
15360;BMP280;7779;49.596;11.070;2023-02-01T08:29:10;98495.59;;;9.04
15360;BMP280;7779;49.596;11.070;2023-02-01T08:31:38;98499.38;;;9.10
15360;BMP280;7779;49.596;11.070;2023-02-01T08:34:06;98503.31;;;9.20
15360;BMP280;7779;49.596;11.070;2023-02-01T08:36:34;98502.13;;;9.28
15360;BMP280;7779;49.596;11.070;2023-02-01T08:39:01;98502.63;;;9.35
15360;BMP280;7779;49.596;11.070;2023-02-01T08:41:29;98507.03;;;9.39
15360;BMP280;7779;49.596;11.070;2023-02-01T08:43:56;98515.03;;;9.46
15360;BMP280;7779;49.596;11.070;2023-02-01T08:46:23;98518.00;;;9.54
15360;BMP280;7779;49.596;11.070;2023-02-01T08:48:49;98518.19;;;9.57
15360;BMP280;7779;49.596;11.070;2023-02-01T08:51:18;98538.09;;;9.68
15360;BMP280;7779;49.596;11.070;2023-02-01T08:53:44;98521.81;;;9.74
15360;BMP280;7779;49.596;11.070;2023-02-01T08:56:13;98519.63;;;9.79
15360;BMP280;7779;49.596;11.070;2023-02-01T08:58:39;98509.88;;;9.83
15360;BMP280;7779;49.596;11.070;2023-02-01T09:01:07;98521.03;;;9.88
15360;BMP280;7779;49.596;11.070;2023-02-01T09:03:33;98517.84;;;9.91
15360;BMP280;7779;49.596;11.070;2023-02-01T09:06:10;98517.38;;;9.96
15360;BMP280;7779;49.596;11.070;2023-02-01T09:08:38;98531.06;;;10.01
15360;BMP280;7779;49.596;11.070;2023-02-01T09:11:08;98530.47;;;10.05
15360;BMP280;7779;49.596;11.070;2023-02-01T09:13:35;98537.31;;;10.08
15360;BMP280;7779;49.596;11.070;2023-02-01T09:16:01;98540.16;;;10.13
15360;BMP280;7779;49.596;11.070;2023-02-01T09:18:27;98548.63;;;10.15
15360;BMP280;7779;49.596;11.070;2023-02-01T09:20:52;98562.91;;;10.16
15360;BMP280;7779;49.596;11.070;2023-02-01T09:23:18;98557.88;;;10.16
15360;BMP280;7779;49.596;11.070;2023-02-01T09:25:46;98570.31;;;10.15
15360;BMP280;7779;49.596;11.070;2023-02-01T09:28:14;98561.06;;;10.14
15360;BMP280;7779;49.596;11.070;2023-02-01T09:30:39;98570.31;;;10.15
15360;BMP280;7779;49.596;11.070;2023-02-01T09:33:05;98569.63;;;10.17
15360;BMP280;7779;49.596;11.070;2023-02-01T09:35:31;98573.78;;;10.17
15360;BMP280;7779;49.596;11.070;2023-02-01T09:37:56;98581.19;;;10.15
15360;BMP280;7779;49.596;11.070;2023-02-01T09:40:23;98580.31;;;10.15
15360;BMP280;7779;49.596;11.070;2023-02-01T09:46:18;98578.78;;;10.17
15360;BMP280;7779;49.596;11.070;2023-02-01T09:48:46;98588.09;;;10.19
15360;BMP280;7779;49.596;11.070;2023-02-01T09:51:23;98596.66;;;10.23
15360;BMP280;7779;49.596;11.070;2023-02-01T09:54:27;98574.31;;;10.26
15360;BMP280;7779;49.596;11.070;2023-02-01T09:57:14;98581.03;;;10.27
15360;BMP280;7779;49.596;11.070;2023-02-01T09:59:57;98592.22;;;10.32
15360;BMP280;7779;49.596;11.070;2023-02-01T10:02:28;98602.59;;;10.38
15360;BMP280;7779;49.596;11.070;2023-02-01T10:04:57;98590.38;;;10.42
15360;BMP280;7779;49.596;11.070;2023-02-01T10:08:05;98596.44;;;10.46
15360;BMP280;7779;49.596;11.070;2023-02-01T10:10:49;98594.09;;;10.49
15360;BMP280;7779;49.596;11.070;2023-02-01T10:16:27;98588.41;;;10.51
15360;BMP280;7779;49.596;11.070;2023-02-01T10:19:37;98594.28;;;10.52
15360;BMP280;7779;49.596;11.070;2023-02-01T10:22:22;98591.69;;;10.50
15360;BMP280;7779;49.596;11.070;2023-02-01T10:27:49;98589.06;;;10.49
15360;BMP280;7779;49.596;11.070;2023-02-01T10:30:24;98592.53;;;10.51
15360;BMP280;7779;49.596;11.070;2023-02-01T10:33:15;98606.19;;;10.55
15360;BMP280;7779;49.596;11.070;2023-02-01T10:35:45;98598.03;;;10.58
15360;BMP280;7779;49.596;11.070;2023-02-01T10:38:28;98586.50;;;10.61
15360;BMP280;7779;49.596;11.070;2023-02-01T10:41:01;98600.03;;;10.63
15360;BMP280;7779;49.596;11.070;2023-02-01T10:43:28;98605.03;;;10.63
15360;BMP280;7779;49.596;11.070;2023-02-01T10:45:54;98600.78;;;10.62
15360;BMP280;7779;49.596;11.070;2023-02-01T10:48:19;98606.75;;;10.64
15360;BMP280;7779;49.596;11.070;2023-02-01T10:51:03;98606.00;;;10.65
15360;BMP280;7779;49.596;11.070;2023-02-01T10:53:34;98610.13;;;10.65
15360;BMP280;7779;49.596;11.070;2023-02-01T10:56:12;98600.03;;;10.63
15360;BMP280;7779;49.596;11.070;2023-02-01T10:58:46;98594.81;;;10.60
15360;BMP280;7779;49.596;11.070;2023-02-01T11:01:37;98592.31;;;10.60
15360;BMP280;7779;49.596;11.070;2023-02-01T11:04:07;98578.06;;;10.59
15360;BMP280;7779;49.596;11.070;2023-02-01T11:06:41;98571.69;;;10.64
15360;BMP280;7779;49.596;11.070;2023-02-01T11:11:55;98567.19;;;10.73
15360;BMP280;7779;49.596;11.070;2023-02-01T11:14:39;98560.13;;;10.81
15360;BMP280;7779;49.596;11.070;2023-02-01T11:19:45;98544.78;;;10.89
15360;BMP280;7779;49.596;11.070;2023-02-01T11:22:13;98547.38;;;10.91
15360;BMP280;7779;49.596;11.070;2023-02-01T11:24:45;98547.28;;;10.89
15360;BMP280;7779;49.596;11.070;2023-02-01T11:27:20;98543.03;;;10.88
15360;BMP280;7779;49.596;11.070;2023-02-01T11:29:52;98541.31;;;10.87
15360;BMP280;7779;49.596;11.070;2023-02-01T11:32:22;98543.03;;;10.88
15360;BMP280;7779;49.596;11.070;2023-02-01T11:35:04;98544.78;;;10.89
15360;BMP280;7779;49.596;11.070;2023-02-01T11:37:41;98541.31;;;10.87
15360;BMP280;7779;49.596;11.070;2023-02-01T11:43:07;98539.47;;;10.85
15360;BMP280;7779;49.596;11.070;2023-02-01T11:45:34;98536.97;;;10.85
15360;BMP280;7779;49.596;11.070;2023-02-01T11:48:10;98541.31;;;10.87
15360;BMP280;7779;49.596;11.070;2023-02-01T11:59:49;98530.25;;;10.98
15360;BMP280;7779;49.596;11.070;2023-02-01T12:02:49;98531.19;;;11.00
15360;BMP280;7779;49.596;11.070;2023-02-01T12:09:05;98533.53;;;10.97
15360;BMP280;7779;49.596;11.070;2023-02-01T12:11:48;98530.06;;;10.95
15360;BMP280;7779;49.596;11.070;2023-02-01T12:14:56;98527.41;;;10.92
15360;BMP280;7779;49.596;11.070;2023-02-01T12:21:23;98511.84;;;10.83
15360;BMP280;7779;49.596;11.070;2023-02-01T12:30:31;98497.03;;;10.73
15360;BMP280;7779;49.596;11.070;2023-02-01T12:39:18;98494.97;;;10.66
15360;BMP280;7779;49.596;11.070;2023-02-01T12:42:08;98496.59;;;10.66
15360;BMP280;7779;49.596;11.070;2023-02-01T12:45:14;98486.31;;;10.61
15360;BMP280;7779;49.596;11.070;2023-02-01T12:48:07;98498.69;;;10.58
15360;BMP280;7779;49.596;11.070;2023-02-01T12:50:50;98510.84;;;10.52
15360;BMP280;7779;49.596;11.070;2023-02-01T12:53:33;98519.53;;;10.45
15360;BMP280;7779;49.596;11.070;2023-02-01T12:56:07;98507.84;;;10.31
15360;BMP280;7779;49.596;11.070;2023-02-01T12:58:50;98516.00;;;10.14
15360;BMP280;7779;49.596;11.070;2023-02-01T13:01:27;98503.16;;;9.95
15360;BMP280;7779;49.596;11.070;2023-02-01T13:04:02;98500.66;;;9.82
15360;BMP280;7779;49.596;11.070;2023-02-01T13:06:41;98487.50;;;9.72
15360;BMP280;7779;49.596;11.070;2023-02-01T13:09:28;98489.44;;;9.63
15360;BMP280;7779;49.596;11.070;2023-02-01T13:12:04;98487.41;;;9.58
15360;BMP280;7779;49.596;11.070;2023-02-01T13:14:38;98487.22;;;9.55
15360;BMP280;7779;49.596;11.070;2023-02-01T13:17:23;98485.41;;;9.52
15360;BMP280;7779;49.596;11.070;2023-02-01T13:20:06;98492.81;;;9.51
15360;BMP280;7779;49.596;11.070;2023-02-01T13:22:40;98476.06;;;9.50
15360;BMP280;7779;49.596;11.070;2023-02-01T13:25:28;98480.66;;;9.57
15360;BMP280;7779;49.596;11.070;2023-02-01T13:28:05;98477.50;;;9.59
15360;BMP280;7779;49.596;11.070;2023-02-01T13:37:27;98482.19;;;9.68
15360;BMP280;7779;49.596;11.070;2023-02-01T13:42:56;98473.25;;;9.71
15360;BMP280;7779;49.596;11.070;2023-02-01T13:45:28;98474.19;;;9.73
15360;BMP280;7779;49.596;11.070;2023-02-01T13:47:59;98478.53;;;9.75
15360;BMP280;7779;49.596;11.070;2023-02-01T13:50:33;98468.69;;;9.78
15360;BMP280;7779;49.596;11.070;2023-02-01T13:53:13;98458.03;;;9.81
15360;BMP280;7779;49.596;11.070;2023-02-01T13:55:45;98467.44;;;9.85
15360;BMP280;7779;49.596;11.070;2023-02-01T13:58:22;98469.19;;;9.86
15360;BMP280;7779;49.596;11.070;2023-02-01T14:03:58;98466.75;;;9.87
15360;BMP280;7779;49.596;11.070;2023-02-01T14:11:53;98469.44;;;9.90
15360;BMP280;7779;49.596;11.070;2023-02-01T14:19:36;98443.47;;;9.88
15360;BMP280;7779;49.596;11.070;2023-02-01T14:24:55;98463.47;;;9.88
15360;BMP280;7779;49.596;11.070;2023-02-01T14:27:28;98448.47;;;9.88
15360;BMP280;7779;49.596;11.070;2023-02-01T14:29:59;98445.19;;;9.89
15360;BMP280;7779;49.596;11.070;2023-02-01T14:32:34;98451.06;;;9.90
15360;BMP280;7779;49.596;11.070;2023-02-01T14:35:06;98443.56;;;9.90
15360;BMP280;7779;49.596;11.070;2023-02-01T14:37:37;98441.91;;;9.90
15360;BMP280;7779;49.596;11.070;2023-02-01T14:40:27;98440.19;;;9.89
15360;BMP280;7779;49.596;11.070;2023-02-01T14:42:54;98435.97;;;9.88
15360;BMP280;7779;49.596;11.070;2023-02-01T14:48:38;98461.56;;;9.84
15360;BMP280;7779;49.596;11.070;2023-02-01T14:50:49;98455.63;;;9.82
15360;BMP280;7779;49.596;11.070;2023-02-01T14:53:33;98461.38;;;9.81
15360;BMP280;7779;49.596;11.070;2023-02-01T14:56:12;98458.78;;;9.80
15360;BMP280;7779;49.596;11.070;2023-02-01T15:01:30;98443.88;;;9.81
15360;BMP280;7779;49.596;11.070;2023-02-01T15:04:14;98403.84;;;9.81
15360;BMP280;7779;49.596;11.070;2023-02-01T15:06:49;98438.78;;;9.80
15360;BMP280;7779;49.596;11.070;2023-02-01T15:09:25;98441.16;;;9.78
15360;BMP280;7779;49.596;11.070;2023-02-01T15:14:46;98446.00;;;9.75
15360;BMP280;7779;49.596;11.070;2023-02-01T15:17:26;98434.25;;;9.74
15360;BMP280;7779;49.596;11.070;2023-02-01T15:19:58;98426.66;;;9.73
15360;BMP280;7779;49.596;11.070;2023-02-01T15:22:25;98429.09;;;9.72
15360;BMP280;7779;49.596;11.070;2023-02-01T15:24:57;98422.34;;;9.71
15360;BMP280;7779;49.596;11.070;2023-02-01T15:27:25;98419.09;;;9.72
15360;BMP280;7779;49.596;11.070;2023-02-01T15:29:51;98418.28;;;9.73
15360;BMP280;7779;49.596;11.070;2023-02-01T15:32:43;98419.16;;;9.73
15360;BMP280;7779;49.596;11.070;2023-02-01T15:35:49;98429.94;;;9.72
15360;BMP280;7779;49.596;11.070;2023-02-01T15:41:06;98417.25;;;9.69
15360;BMP280;7779;49.596;11.070;2023-02-01T15:43:37;98418.03;;;9.68
15360;BMP280;7779;49.596;11.070;2023-02-01T15:46:14;98411.38;;;9.69
15360;BMP280;7779;49.596;11.070;2023-02-01T15:48:52;98417.16;;;9.68
15360;BMP280;7779;49.596;11.070;2023-02-01T15:51:29;98413.88;;;9.69
15360;BMP280;7779;49.596;11.070;2023-02-01T15:54:05;98417.16;;;9.68
15360;BMP280;7779;49.596;11.070;2023-02-01T15:56:39;98421.28;;;9.67
15360;BMP280;7779;49.596;11.070;2023-02-01T15:59:16;98421.28;;;9.67
15360;BMP280;7779;49.596;11.070;2023-02-01T16:01:42;98415.25;;;9.64
15360;BMP280;7779;49.596;11.070;2023-02-01T16:04:20;98425.25;;;9.64
15360;BMP280;7779;49.596;11.070;2023-02-01T16:07:03;98421.03;;;9.63
15360;BMP280;7779;49.596;11.070;2023-02-01T16:09:58;98421.78;;;9.62
15360;BMP280;7779;49.596;11.070;2023-02-01T16:12:45;98423.34;;;9.60
15360;BMP280;7779;49.596;11.070;2023-02-01T16:15:11;98424.88;;;9.58
15360;BMP280;7779;49.596;11.070;2023-02-01T16:17:37;98427.38;;;9.58
15360;BMP280;7779;49.596;11.070;2023-02-01T16:20:03;98421.59;;;9.59
15360;BMP280;7779;49.596;11.070;2023-02-01T16:22:29;98431.59;;;9.59
15360;BMP280;7779;49.596;11.070;2023-02-01T16:24:54;98428.25;;;9.58
15360;BMP280;7779;49.596;11.070;2023-02-01T16:27:20;98421.44;;;9.56
15360;BMP280;7779;49.596;11.070;2023-02-01T16:29:48;98421.44;;;9.56
15360;BMP280;7779;49.596;11.070;2023-02-01T16:32:20;98428.94;;;9.56
15360;BMP280;7779;49.596;11.070;2023-02-01T16:34:47;98424.69;;;9.55